sensor_id;sensor_type;location;lat;lon;timestamp;temperature;humidity
70244;DHT22;57634;51.136;17.024;2023-04-08T00:01:11;7.40;85.20
70244;DHT22;57634;51.136;17.024;2023-04-08T00:04:13;7.40;85.20
70244;DHT22;57634;51.136;17.024;2023-04-08T00:07:15;7.40;85.20
70244;DHT22;57634;51.136;17.024;2023-04-08T00:10:17;7.40;85.20
70244;DHT22;57634;51.136;17.024;2023-04-08T00:13:18;7.40;85.30
70244;DHT22;57634;51.136;17.024;2023-04-08T00:16:19;7.30;85.40
70244;DHT22;57634;51.136;17.024;2023-04-08T00:19:22;7.40;85.50
70244;DHT22;57634;51.136;17.024;2023-04-08T00:22:23;7.40;85.40
70244;DHT22;57634;51.136;17.024;2023-04-08T00:25:26;7.40;85.70
70244;DHT22;57634;51.136;17.024;2023-04-08T00:28:27;7.30;85.70
70244;DHT22;57634;51.136;17.024;2023-04-08T00:31:28;7.30;85.70
70244;DHT22;57634;51.136;17.024;2023-04-08T00:34:30;7.30;85.80
70244;DHT22;57634;51.136;17.024;2023-04-08T00:38:00;7.30;85.70
70244;DHT22;57634;51.136;17.024;2023-04-08T00:41:01;7.30;85.90
70244;DHT22;57634;51.136;17.024;2023-04-08T00:44:03;7.30;86.00
70244;DHT22;57634;51.136;17.024;2023-04-08T00:47:05;7.40;86.10
70244;DHT22;57634;51.136;17.024;2023-04-08T00:50:08;7.40;86.00
70244;DHT22;57634;51.136;17.024;2023-04-08T00:53:16;7.40;85.90
70244;DHT22;57634;51.136;17.024;2023-04-08T00:56:38;7.40;85.80
70244;DHT22;57634;51.136;17.024;2023-04-08T00:59:40;7.40;85.80
70244;DHT22;57634;51.136;17.024;2023-04-08T01:09:11;7.30;86.40
70244;DHT22;57634;51.136;17.024;2023-04-08T01:12:19;7.20;86.50
70244;DHT22;57634;51.136;17.024;2023-04-08T01:15:48;7.20;86.70
70244;DHT22;57634;51.136;17.024;2023-04-08T01:18:51;7.10;87.00
70244;DHT22;57634;51.136;17.024;2023-04-08T01:22:00;7.10;87.40
70244;DHT22;57634;51.136;17.024;2023-04-08T01:28:18;7.10;87.80
70244;DHT22;57634;51.136;17.024;2023-04-08T01:31:21;7.10;87.90
70244;DHT22;57634;51.136;17.024;2023-04-08T01:34:24;7.10;88.00
70244;DHT22;57634;51.136;17.024;2023-04-08T01:37:27;7.10;88.20
70244;DHT22;57634;51.136;17.024;2023-04-08T01:40:54;7.10;88.30
70244;DHT22;57634;51.136;17.024;2023-04-08T01:43:57;7.00;88.20
70244;DHT22;57634;51.136;17.024;2023-04-08T01:47:00;7.00;88.20
70244;DHT22;57634;51.136;17.024;2023-04-08T01:50:02;6.90;87.90
70244;DHT22;57634;51.136;17.024;2023-04-08T01:53:08;6.80;87.60
70244;DHT22;57634;51.136;17.024;2023-04-08T01:56:14;6.70;87.20
70244;DHT22;57634;51.136;17.024;2023-04-08T01:59:18;6.50;87.20
70244;DHT22;57634;51.136;17.024;2023-04-08T02:02:23;6.40;87.20
70244;DHT22;57634;51.136;17.024;2023-04-08T02:05:27;6.30;86.90
70244;DHT22;57634;51.136;17.024;2023-04-08T02:08:28;6.20;87.00
70244;DHT22;57634;51.136;17.024;2023-04-08T02:11:55;6.20;87.10
70244;DHT22;57634;51.136;17.024;2023-04-08T02:14:57;6.10;87.30
70244;DHT22;57634;51.136;17.024;2023-04-08T02:18:23;6.10;87.40
70244;DHT22;57634;51.136;17.024;2023-04-08T02:21:17;6.00;87.50
70244;DHT22;57634;51.136;17.024;2023-04-08T02:24:23;6.00;87.70
70244;DHT22;57634;51.136;17.024;2023-04-08T02:27:26;5.90;87.70
70244;DHT22;57634;51.136;17.024;2023-04-08T02:30:30;6.00;87.70
70244;DHT22;57634;51.136;17.024;2023-04-08T02:33:33;5.90;87.40
70244;DHT22;57634;51.136;17.024;2023-04-08T02:37:03;5.90;87.30
70244;DHT22;57634;51.136;17.024;2023-04-08T02:43:17;5.90;87.30
70244;DHT22;57634;51.136;17.024;2023-04-08T02:46:18;5.90;87.20
70244;DHT22;57634;51.136;17.024;2023-04-08T02:49:20;5.90;87.10
70244;DHT22;57634;51.136;17.024;2023-04-08T02:52:21;5.90;87.00
70244;DHT22;57634;51.136;17.024;2023-04-08T02:55:22;6.00;87.00
70244;DHT22;57634;51.136;17.024;2023-04-08T02:58:23;6.00;86.70
70244;DHT22;57634;51.136;17.024;2023-04-08T03:01:25;5.90;86.60
70244;DHT22;57634;51.136;17.024;2023-04-08T03:04:27;6.00;86.50
70244;DHT22;57634;51.136;17.024;2023-04-08T03:07:28;5.90;86.30
70244;DHT22;57634;51.136;17.024;2023-04-08T03:10:29;5.90;86.10
70244;DHT22;57634;51.136;17.024;2023-04-08T03:13:58;5.90;86.20
70244;DHT22;57634;51.136;17.024;2023-04-08T03:17:00;5.90;86.20
70244;DHT22;57634;51.136;17.024;2023-04-08T03:20:01;5.80;86.30
70244;DHT22;57634;51.136;17.024;2023-04-08T03:23:06;5.80;86.10
70244;DHT22;57634;51.136;17.024;2023-04-08T03:26:08;5.80;85.90
70244;DHT22;57634;51.136;17.024;2023-04-08T03:29:09;5.80;85.80
70244;DHT22;57634;51.136;17.024;2023-04-08T03:32:10;5.80;85.70
70244;DHT22;57634;51.136;17.024;2023-04-08T03:35:11;5.80;85.60
70244;DHT22;57634;51.136;17.024;2023-04-08T03:38:13;5.80;85.00
70244;DHT22;57634;51.136;17.024;2023-04-08T03:41:14;5.70;84.70
70244;DHT22;57634;51.136;17.024;2023-04-08T03:44:16;5.70;84.50
70244;DHT22;57634;51.136;17.024;2023-04-08T03:47:18;5.70;84.00
70244;DHT22;57634;51.136;17.024;2023-04-08T03:50:19;5.70;83.90
70244;DHT22;57634;51.136;17.024;2023-04-08T03:53:21;5.70;83.70
70244;DHT22;57634;51.136;17.024;2023-04-08T03:56:49;5.70;83.80
70244;DHT22;57634;51.136;17.024;2023-04-08T03:59:51;5.70;84.10
70244;DHT22;57634;51.136;17.024;2023-04-08T04:02:53;5.80;84.30
70244;DHT22;57634;51.136;17.024;2023-04-08T04:05:55;5.80;84.10
70244;DHT22;57634;51.136;17.024;2023-04-08T04:08:57;5.80;84.20
70244;DHT22;57634;51.136;17.024;2023-04-08T04:11:58;5.70;84.30
70244;DHT22;57634;51.136;17.024;2023-04-08T04:14:59;5.80;84.30
70244;DHT22;57634;51.136;17.024;2023-04-08T04:18:00;5.70;84.20
70244;DHT22;57634;51.136;17.024;2023-04-08T04:21:04;5.70;84.30
70244;DHT22;57634;51.136;17.024;2023-04-08T04:24:07;5.70;84.20
70244;DHT22;57634;51.136;17.024;2023-04-08T04:27:08;5.70;84.20
70244;DHT22;57634;51.136;17.024;2023-04-08T04:30:10;5.80;84.20
70244;DHT22;57634;51.136;17.024;2023-04-08T04:33:43;5.80;84.10
70244;DHT22;57634;51.136;17.024;2023-04-08T04:36:44;5.80;84.10
70244;DHT22;57634;51.136;17.024;2023-04-08T04:39:47;5.80;84.10
70244;DHT22;57634;51.136;17.024;2023-04-08T04:42:48;5.80;83.90
70244;DHT22;57634;51.136;17.024;2023-04-08T04:45:50;5.80;83.60
70244;DHT22;57634;51.136;17.024;2023-04-08T04:48:52;5.80;83.60
70244;DHT22;57634;51.136;17.024;2023-04-08T04:51:53;5.80;83.50
70244;DHT22;57634;51.136;17.024;2023-04-08T04:54:56;5.70;83.50
70244;DHT22;57634;51.136;17.024;2023-04-08T04:57:58;5.70;83.30
70244;DHT22;57634;51.136;17.024;2023-04-08T05:00:59;5.70;83.10
70244;DHT22;57634;51.136;17.024;2023-04-08T05:04:01;5.70;83.10
70244;DHT22;57634;51.136;17.024;2023-04-08T05:07:02;5.70;83.10
70244;DHT22;57634;51.136;17.024;2023-04-08T05:10:04;5.70;83.10
70244;DHT22;57634;51.136;17.024;2023-04-08T05:13:06;5.70;83.10
70244;DHT22;57634;51.136;17.024;2023-04-08T05:16:33;5.70;82.90
70244;DHT22;57634;51.136;17.024;2023-04-08T05:19:34;5.70;83.10
70244;DHT22;57634;51.136;17.024;2023-04-08T05:22:36;5.60;83.00
70244;DHT22;57634;51.136;17.024;2023-04-08T05:25:38;5.60;83.00
70244;DHT22;57634;51.136;17.024;2023-04-08T05:28:39;5.60;82.80
70244;DHT22;57634;51.136;17.024;2023-04-08T05:31:40;5.60;82.70
70244;DHT22;57634;51.136;17.024;2023-04-08T05:34:41;5.60;82.40
70244;DHT22;57634;51.136;17.024;2023-04-08T05:37:43;5.60;82.30
70244;DHT22;57634;51.136;17.024;2023-04-08T05:40:44;5.60;82.40
70244;DHT22;57634;51.136;17.024;2023-04-08T05:43:46;5.70;82.40
70244;DHT22;57634;51.136;17.024;2023-04-08T05:46:47;5.70;81.90
70244;DHT22;57634;51.136;17.024;2023-04-08T05:49:48;5.70;81.50
70244;DHT22;57634;51.136;17.024;2023-04-08T05:52:50;5.70;81.20
70244;DHT22;57634;51.136;17.024;2023-04-08T05:55:51;5.70;81.10
70244;DHT22;57634;51.136;17.024;2023-04-08T05:58:52;5.70;81.10
70244;DHT22;57634;51.136;17.024;2023-04-08T06:02:20;5.80;81.00
70244;DHT22;57634;51.136;17.024;2023-04-08T06:05:21;5.80;80.30
70244;DHT22;57634;51.136;17.024;2023-04-08T06:08:22;5.80;79.90
70244;DHT22;57634;51.136;17.024;2023-04-08T06:11:24;5.80;79.90
70244;DHT22;57634;51.136;17.024;2023-04-08T06:14:26;5.80;79.90
70244;DHT22;57634;51.136;17.024;2023-04-08T06:17:27;5.80;80.00
70244;DHT22;57634;51.136;17.024;2023-04-08T06:20:29;5.80;80.00
70244;DHT22;57634;51.136;17.024;2023-04-08T06:23:30;5.80;80.00
70244;DHT22;57634;51.136;17.024;2023-04-08T06:26:32;5.90;80.00
70244;DHT22;57634;51.136;17.024;2023-04-08T06:29:33;5.90;79.70
70244;DHT22;57634;51.136;17.024;2023-04-08T06:32:34;5.90;79.30
70244;DHT22;57634;51.136;17.024;2023-04-08T06:35:35;5.90;79.20
70244;DHT22;57634;51.136;17.024;2023-04-08T06:38:40;6.00;79.50
70244;DHT22;57634;51.136;17.024;2023-04-08T06:41:41;6.10;79.40
70244;DHT22;57634;51.136;17.024;2023-04-08T06:45:10;6.20;79.20
70244;DHT22;57634;51.136;17.024;2023-04-08T06:48:12;6.40;78.90
70244;DHT22;57634;51.136;17.024;2023-04-08T06:51:13;6.60;78.50
70244;DHT22;57634;51.136;17.024;2023-04-08T06:54:14;6.70;78.00
70244;DHT22;57634;51.136;17.024;2023-04-08T06:57:16;6.80;77.50
70244;DHT22;57634;51.136;17.024;2023-04-08T07:00:17;7.00;76.70
70244;DHT22;57634;51.136;17.024;2023-04-08T07:03:18;7.00;75.70
70244;DHT22;57634;51.136;17.024;2023-04-08T07:06:20;7.00;75.80
70244;DHT22;57634;51.136;17.024;2023-04-08T07:09:21;7.20;75.50
70244;DHT22;57634;51.136;17.024;2023-04-08T07:12:22;7.30;74.50
70244;DHT22;57634;51.136;17.024;2023-04-08T07:15:23;7.20;73.30
70244;DHT22;57634;51.136;17.024;2023-04-08T07:18:25;7.10;73.00
70244;DHT22;57634;51.136;17.024;2023-04-08T07:21:26;7.00;73.20
70244;DHT22;57634;51.136;17.024;2023-04-08T07:24:28;6.90;73.40
70244;DHT22;57634;51.136;17.024;2023-04-08T07:27:29;6.80;73.70
70244;DHT22;57634;51.136;17.024;2023-04-08T07:34:10;7.00;74.10
70244;DHT22;57634;51.136;17.024;2023-04-08T07:37:11;7.10;73.10
70244;DHT22;57634;51.136;17.024;2023-04-08T07:40:13;7.10;72.70
70244;DHT22;57634;51.136;17.024;2023-04-08T07:43:15;7.20;73.20
70244;DHT22;57634;51.136;17.024;2023-04-08T07:46:16;7.30;73.00
70244;DHT22;57634;51.136;17.024;2023-04-08T07:49:18;7.40;73.00
70244;DHT22;57634;51.136;17.024;2023-04-08T07:52:19;7.40;72.30
70244;DHT22;57634;51.136;17.024;2023-04-08T07:55:21;7.40;72.30
70244;DHT22;57634;51.136;17.024;2023-04-08T07:58:23;7.50;72.80
70244;DHT22;57634;51.136;17.024;2023-04-08T08:01:24;7.60;72.40
70244;DHT22;57634;51.136;17.024;2023-04-08T08:04:56;7.60;72.20
70244;DHT22;57634;51.136;17.024;2023-04-08T08:07:58;7.80;72.70
70244;DHT22;57634;51.136;17.024;2023-04-08T08:10:59;7.90;71.70
70244;DHT22;57634;51.136;17.024;2023-04-08T08:14:00;7.90;71.20
70244;DHT22;57634;51.136;17.024;2023-04-08T08:17:02;7.80;71.20
70244;DHT22;57634;51.136;17.024;2023-04-08T08:20:06;7.80;71.60
70244;DHT22;57634;51.136;17.024;2023-04-08T08:23:07;7.90;71.80
70244;DHT22;57634;51.136;17.024;2023-04-08T08:26:09;7.90;71.20
70244;DHT22;57634;51.136;17.024;2023-04-08T08:29:11;7.80;70.70
70244;DHT22;57634;51.136;17.024;2023-04-08T08:32:12;7.70;71.00
70244;DHT22;57634;51.136;17.024;2023-04-08T08:35:14;7.70;71.60
70244;DHT22;57634;51.136;17.024;2023-04-08T08:38:16;7.80;71.20
70244;DHT22;57634;51.136;17.024;2023-04-08T08:41:17;7.70;70.70
70244;DHT22;57634;51.136;17.024;2023-04-08T08:44:19;7.70;70.60
70244;DHT22;57634;51.136;17.024;2023-04-08T08:47:46;7.60;70.80
70244;DHT22;57634;51.136;17.024;2023-04-08T08:50:47;7.60;71.40
70244;DHT22;57634;51.136;17.024;2023-04-08T08:53:48;7.70;71.20
70244;DHT22;57634;51.136;17.024;2023-04-08T08:56:49;7.70;70.90
70244;DHT22;57634;51.136;17.024;2023-04-08T08:59:51;7.70;71.10
70244;DHT22;57634;51.136;17.024;2023-04-08T09:02:52;7.60;70.70
70244;DHT22;57634;51.136;17.024;2023-04-08T09:05:56;7.60;70.80
70244;DHT22;57634;51.136;17.024;2023-04-08T09:08:57;7.70;71.10
70244;DHT22;57634;51.136;17.024;2023-04-08T09:12:03;7.70;71.00
70244;DHT22;57634;51.136;17.024;2023-04-08T09:15:08;7.80;71.10
70244;DHT22;57634;51.136;17.024;2023-04-08T09:28:19;8.10;70.80
70244;DHT22;57634;51.136;17.024;2023-04-08T09:31:25;8.20;70.50
70244;DHT22;57634;51.136;17.024;2023-04-08T09:34:28;8.20;70.20
70244;DHT22;57634;51.136;17.024;2023-04-08T09:37:33;8.30;70.30
70244;DHT22;57634;51.136;17.024;2023-04-08T09:41:05;8.30;69.70
70244;DHT22;57634;51.136;17.024;2023-04-08T09:44:14;8.30;70.00
70244;DHT22;57634;51.136;17.024;2023-04-08T09:47:24;8.30;69.60
70244;DHT22;57634;51.136;17.024;2023-04-08T09:50:32;8.30;69.60
70244;DHT22;57634;51.136;17.024;2023-04-08T09:53:37;8.30;70.00
70244;DHT22;57634;51.136;17.024;2023-04-08T09:56:51;8.50;70.10
70244;DHT22;57634;51.136;17.024;2023-04-08T10:00:23;8.60;69.90
70244;DHT22;57634;51.136;17.024;2023-04-08T10:03:38;8.90;69.90
70244;DHT22;57634;51.136;17.024;2023-04-08T10:06:40;9.30;69.70
70244;DHT22;57634;51.136;17.024;2023-04-08T10:09:42;9.60;68.50
70244;DHT22;57634;51.136;17.024;2023-04-08T10:12:44;9.90;67.60
70244;DHT22;57634;51.136;17.024;2023-04-08T10:15:45;10.00;67.30
70244;DHT22;57634;51.136;17.024;2023-04-08T10:18:49;10.20;66.80
70244;DHT22;57634;51.136;17.024;2023-04-08T10:21:56;10.30;66.20
70244;DHT22;57634;51.136;17.024;2023-04-08T10:25:31;10.40;65.60
70244;DHT22;57634;51.136;17.024;2023-04-08T10:28:33;10.30;64.90
70244;DHT22;57634;51.136;17.024;2023-04-08T10:31:39;10.20;65.00
70244;DHT22;57634;51.136;17.024;2023-04-08T10:37:53;10.10;65.00
70244;DHT22;57634;51.136;17.024;2023-04-08T10:40:56;10.00;65.00
70244;DHT22;57634;51.136;17.024;2023-04-08T10:43:58;9.90;65.00
70244;DHT22;57634;51.136;17.024;2023-04-08T10:46:59;9.90;65.20
70244;DHT22;57634;51.136;17.024;2023-04-08T10:53:39;9.90;65.30
70244;DHT22;57634;51.136;17.024;2023-04-08T10:56:50;10.00;65.40
70244;DHT22;57634;51.136;17.024;2023-04-08T10:59:53;10.30;65.50
70244;DHT22;57634;51.136;17.024;2023-04-08T11:02:54;10.60;65.10
70244;DHT22;57634;51.136;17.024;2023-04-08T11:05:57;10.80;64.60
70244;DHT22;57634;51.136;17.024;2023-04-08T11:09:02;11.00;63.80
70244;DHT22;57634;51.136;17.024;2023-04-08T11:12:04;11.20;63.20
70244;DHT22;57634;51.136;17.024;2023-04-08T11:15:06;11.20;62.80
70244;DHT22;57634;51.136;17.024;2023-04-08T11:18:07;11.30;62.80
70244;DHT22;57634;51.136;17.024;2023-04-08T11:21:10;11.50;62.60
70244;DHT22;57634;51.136;17.024;2023-04-08T11:24:40;11.80;62.30
70244;DHT22;57634;51.136;17.024;2023-04-08T11:27:41;12.00;61.10
70244;DHT22;57634;51.136;17.024;2023-04-08T11:30:43;12.00;60.50
70244;DHT22;57634;51.136;17.024;2023-04-08T11:33:49;12.00;60.50
70244;DHT22;57634;51.136;17.024;2023-04-08T11:36:52;12.10;60.70
70244;DHT22;57634;51.136;17.024;2023-04-08T11:39:54;12.30;60.60
70244;DHT22;57634;51.136;17.024;2023-04-08T11:42:57;12.50;60.00
70244;DHT22;57634;51.136;17.024;2023-04-08T11:45:59;12.60;59.10
70244;DHT22;57634;51.136;17.024;2023-04-08T11:49:04;12.80;58.90
70244;DHT22;57634;51.136;17.024;2023-04-08T11:52:06;12.90;58.30
70244;DHT22;57634;51.136;17.024;2023-04-08T11:55:20;13.10;57.70
70244;DHT22;57634;51.136;17.024;2023-04-08T11:58:44;13.20;57.20
70244;DHT22;57634;51.136;17.024;2023-04-08T12:01:47;13.20;56.90
70244;DHT22;57634;51.136;17.024;2023-04-08T12:04:49;13.30;56.00
70244;DHT22;57634;51.136;17.024;2023-04-08T12:07:51;13.10;55.60
70244;DHT22;57634;51.136;17.024;2023-04-08T12:10:53;12.90;55.50
70244;DHT22;57634;51.136;17.024;2023-04-08T12:13:54;12.80;55.60
70244;DHT22;57634;51.136;17.024;2023-04-08T12:16:56;12.80;55.90
70244;DHT22;57634;51.136;17.024;2023-04-08T12:19:58;12.90;55.80
70244;DHT22;57634;51.136;17.024;2023-04-08T12:23:00;12.90;55.10
70244;DHT22;57634;51.136;17.024;2023-04-08T12:26:02;12.80;54.90
70244;DHT22;57634;51.136;17.024;2023-04-08T12:29:04;12.60;54.50
70244;DHT22;57634;51.136;17.024;2023-04-08T12:32:06;12.50;54.90
70244;DHT22;57634;51.136;17.024;2023-04-08T12:35:07;12.40;55.00
70244;DHT22;57634;51.136;17.024;2023-04-08T12:38:36;12.30;55.10
70244;DHT22;57634;51.136;17.024;2023-04-08T12:41:39;12.30;55.30
70244;DHT22;57634;51.136;17.024;2023-04-08T12:44:41;12.40;55.50
70244;DHT22;57634;51.136;17.024;2023-04-08T12:47:42;12.40;55.20
70244;DHT22;57634;51.136;17.024;2023-04-08T12:50:43;12.40;55.30
70244;DHT22;57634;51.136;17.024;2023-04-08T12:53:44;12.50;55.40
70244;DHT22;57634;51.136;17.024;2023-04-08T12:56:46;12.60;55.00
70244;DHT22;57634;51.136;17.024;2023-04-08T12:59:49;12.60;54.90
70244;DHT22;57634;51.136;17.024;2023-04-08T13:02:51;12.60;54.80
70244;DHT22;57634;51.136;17.024;2023-04-08T13:05:52;12.60;54.80
70244;DHT22;57634;51.136;17.024;2023-04-08T13:08:53;12.60;54.60
70244;DHT22;57634;51.136;17.024;2023-04-08T13:11:54;12.60;54.60
70244;DHT22;57634;51.136;17.024;2023-04-08T13:14:56;12.60;54.50
70244;DHT22;57634;51.136;17.024;2023-04-08T13:17:59;12.70;54.50
70244;DHT22;57634;51.136;17.024;2023-04-08T13:21:26;12.70;54.50
70244;DHT22;57634;51.136;17.024;2023-04-08T13:24:28;12.60;54.20
70244;DHT22;57634;51.136;17.024;2023-04-08T13:27:29;12.50;54.20
70244;DHT22;57634;51.136;17.024;2023-04-08T13:30:31;12.40;54.40
70244;DHT22;57634;51.136;17.024;2023-04-08T13:33:32;12.50;54.50
70244;DHT22;57634;51.136;17.024;2023-04-08T13:36:34;12.60;54.50
70244;DHT22;57634;51.136;17.024;2023-04-08T13:39:35;12.70;54.40
70244;DHT22;57634;51.136;17.024;2023-04-08T13:42:36;12.80;54.10
70244;DHT22;57634;51.136;17.024;2023-04-08T13:45:38;12.80;54.10
70244;DHT22;57634;51.136;17.024;2023-04-08T13:48:41;12.80;53.30
70244;DHT22;57634;51.136;17.024;2023-04-08T13:51:42;12.60;53.30
70244;DHT22;57634;51.136;17.024;2023-04-08T13:54:44;12.50;53.70
70244;DHT22;57634;51.136;17.024;2023-04-08T13:57:48;12.50;54.20
70244;DHT22;57634;51.136;17.024;2023-04-08T14:01:18;12.60;54.20
70244;DHT22;57634;51.136;17.024;2023-04-08T14:04:20;12.80;54.40
70244;DHT22;57634;51.136;17.024;2023-04-08T14:07:22;12.90;54.20
70244;DHT22;57634;51.136;17.024;2023-04-08T14:10:23;12.90;53.90
70244;DHT22;57634;51.136;17.024;2023-04-08T14:13:24;12.90;54.00
70244;DHT22;57634;51.136;17.024;2023-04-08T14:16:25;12.90;54.00
70244;DHT22;57634;51.136;17.024;2023-04-08T14:19:29;13.00;53.70
70244;DHT22;57634;51.136;17.024;2023-04-08T14:22:32;13.10;53.80
70244;DHT22;57634;51.136;17.024;2023-04-08T14:25:33;13.10;54.00
70244;DHT22;57634;51.136;17.024;2023-04-08T14:28:34;13.20;53.80
70244;DHT22;57634;51.136;17.024;2023-04-08T14:31:37;13.20;52.90
70244;DHT22;57634;51.136;17.024;2023-04-08T14:34:38;13.20;52.80
70244;DHT22;57634;51.136;17.024;2023-04-08T14:37:39;13.10;52.70
70244;DHT22;57634;51.136;17.024;2023-04-08T14:41:09;12.90;52.80
70244;DHT22;57634;51.136;17.024;2023-04-08T14:44:11;12.80;53.20
70244;DHT22;57634;51.136;17.024;2023-04-08T14:47:12;12.80;53.50
70244;DHT22;57634;51.136;17.024;2023-04-08T14:50:13;12.90;53.50
70244;DHT22;57634;51.136;17.024;2023-04-08T14:53:16;12.90;53.30
70244;DHT22;57634;51.136;17.024;2023-04-08T14:56:17;12.90;52.70
70244;DHT22;57634;51.136;17.024;2023-04-08T14:59:19;12.90;52.60
70244;DHT22;57634;51.136;17.024;2023-04-08T15:02:21;12.80;53.00
70244;DHT22;57634;51.136;17.024;2023-04-08T15:05:22;12.80;53.40
70244;DHT22;57634;51.136;17.024;2023-04-08T15:08:23;12.80;53.60
70244;DHT22;57634;51.136;17.024;2023-04-08T15:11:24;12.90;53.60
70244;DHT22;57634;51.136;17.024;2023-04-08T15:14:26;13.00;53.60
70244;DHT22;57634;51.136;17.024;2023-04-08T15:17:27;13.10;53.60
70244;DHT22;57634;51.136;17.024;2023-04-08T15:20:29;13.20;53.40
70244;DHT22;57634;51.136;17.024;2023-04-08T15:23:57;13.20;53.20
70244;DHT22;57634;51.136;17.024;2023-04-08T15:26:59;13.20;53.00
70244;DHT22;57634;51.136;17.024;2023-04-08T15:30:01;13.10;53.20
70244;DHT22;57634;51.136;17.024;2023-04-08T15:33:02;13.00;53.40
70244;DHT22;57634;51.136;17.024;2023-04-08T15:36:05;13.00;53.60
70244;DHT22;57634;51.136;17.024;2023-04-08T15:39:07;13.00;53.40
70244;DHT22;57634;51.136;17.024;2023-04-08T15:42:08;12.90;53.50
70244;DHT22;57634;51.136;17.024;2023-04-08T15:45:10;12.80;53.60
70244;DHT22;57634;51.136;17.024;2023-04-08T15:48:11;12.80;53.80
70244;DHT22;57634;51.136;17.024;2023-04-08T15:51:13;12.90;53.80
70244;DHT22;57634;51.136;17.024;2023-04-08T15:54:14;12.90;53.70
70244;DHT22;57634;51.136;17.024;2023-04-08T15:57:15;12.80;53.90
70244;DHT22;57634;51.136;17.024;2023-04-08T16:00:17;12.90;54.30
70244;DHT22;57634;51.136;17.024;2023-04-08T16:03:19;12.90;54.20
70244;DHT22;57634;51.136;17.024;2023-04-08T16:06:46;12.90;54.20
70244;DHT22;57634;51.136;17.024;2023-04-08T16:09:47;13.00;54.30
70244;DHT22;57634;51.136;17.024;2023-04-08T16:12:48;13.00;54.30
70244;DHT22;57634;51.136;17.024;2023-04-08T16:15:51;13.00;54.30
70244;DHT22;57634;51.136;17.024;2023-04-08T16:18:52;13.00;54.30
70244;DHT22;57634;51.136;17.024;2023-04-08T16:21:57;13.00;54.50
70244;DHT22;57634;51.136;17.024;2023-04-08T16:24:59;13.00;54.50
70244;DHT22;57634;51.136;17.024;2023-04-08T16:28:00;13.00;54.50
70244;DHT22;57634;51.136;17.024;2023-04-08T16:31:02;13.00;54.60
70244;DHT22;57634;51.136;17.024;2023-04-08T16:34:07;13.00;54.80
70244;DHT22;57634;51.136;17.024;2023-04-08T16:37:08;12.90;54.60
70244;DHT22;57634;51.136;17.024;2023-04-08T16:40:10;12.80;54.70
70244;DHT22;57634;51.136;17.024;2023-04-08T16:43:40;12.80;54.90
70244;DHT22;57634;51.136;17.024;2023-04-08T16:46:42;12.70;55.10
70244;DHT22;57634;51.136;17.024;2023-04-08T16:49:43;12.60;55.30
70244;DHT22;57634;51.136;17.024;2023-04-08T16:52:44;12.60;55.40
70244;DHT22;57634;51.136;17.024;2023-04-08T16:55:50;12.60;55.50
70244;DHT22;57634;51.136;17.024;2023-04-08T16:58:51;12.50;55.60
70244;DHT22;57634;51.136;17.024;2023-04-08T17:01:53;12.50;55.70
70244;DHT22;57634;51.136;17.024;2023-04-08T17:04:54;12.50;55.90
70244;DHT22;57634;51.136;17.024;2023-04-08T17:07:56;12.40;56.00
70244;DHT22;57634;51.136;17.024;2023-04-08T17:11:08;12.40;56.20
70244;DHT22;57634;51.136;17.024;2023-04-08T17:14:10;12.30;56.40
70244;DHT22;57634;51.136;17.024;2023-04-08T17:17:37;12.30;56.60
70244;DHT22;57634;51.136;17.024;2023-04-08T17:20:38;12.20;56.80
70244;DHT22;57634;51.136;17.024;2023-04-08T17:23:40;12.20;57.00
70244;DHT22;57634;51.136;17.024;2023-04-08T17:26:41;12.10;57.20
70244;DHT22;57634;51.136;17.024;2023-04-08T17:29:43;12.10;57.40
70244;DHT22;57634;51.136;17.024;2023-04-08T17:32:44;12.10;57.50
70244;DHT22;57634;51.136;17.024;2023-04-08T17:35:46;12.00;57.70
70244;DHT22;57634;51.136;17.024;2023-04-08T17:38:47;11.90;57.90
70244;DHT22;57634;51.136;17.024;2023-04-08T17:41:49;11.90;58.10
70244;DHT22;57634;51.136;17.024;2023-04-08T17:44:50;11.80;58.30
70244;DHT22;57634;51.136;17.024;2023-04-08T17:47:52;11.80;58.50
70244;DHT22;57634;51.136;17.024;2023-04-08T17:51:00;11.70;58.60
70244;DHT22;57634;51.136;17.024;2023-04-08T17:54:02;11.70;58.80
70244;DHT22;57634;51.136;17.024;2023-04-08T17:57:30;11.70;59.00
70244;DHT22;57634;51.136;17.024;2023-04-08T18:00:32;11.60;59.30
70244;DHT22;57634;51.136;17.024;2023-04-08T18:03:33;11.60;59.60
70244;DHT22;57634;51.136;17.024;2023-04-08T18:06:35;11.50;59.70
70244;DHT22;57634;51.136;17.024;2023-04-08T18:09:36;11.50;60.00
70244;DHT22;57634;51.136;17.024;2023-04-08T18:12:37;11.40;60.20
70244;DHT22;57634;51.136;17.024;2023-04-08T18:15:39;11.40;60.50
70244;DHT22;57634;51.136;17.024;2023-04-08T18:18:41;11.40;60.70
70244;DHT22;57634;51.136;17.024;2023-04-08T18:21:42;11.40;60.90
70244;DHT22;57634;51.136;17.024;2023-04-08T18:24:43;11.30;60.90
70244;DHT22;57634;51.136;17.024;2023-04-08T18:27:45;11.30;61.10
70244;DHT22;57634;51.136;17.024;2023-04-08T18:30:50;11.20;61.10
70244;DHT22;57634;51.136;17.024;2023-04-08T18:33:52;11.20;61.30
70244;DHT22;57634;51.136;17.024;2023-04-08T18:36:53;11.10;61.40
70244;DHT22;57634;51.136;17.024;2023-04-08T18:40:21;11.10;61.60
70244;DHT22;57634;51.136;17.024;2023-04-08T18:43:22;11.00;61.70
70244;DHT22;57634;51.136;17.024;2023-04-08T18:46:23;11.00;61.90
70244;DHT22;57634;51.136;17.024;2023-04-08T18:49:24;10.90;62.00
70244;DHT22;57634;51.136;17.024;2023-04-08T18:52:26;10.90;62.20
70244;DHT22;57634;51.136;17.024;2023-04-08T18:55:27;10.90;62.40
70244;DHT22;57634;51.136;17.024;2023-04-08T18:58:29;10.90;62.60
70244;DHT22;57634;51.136;17.024;2023-04-08T19:01:32;10.90;62.70
70244;DHT22;57634;51.136;17.024;2023-04-08T19:04:36;10.90;62.90
70244;DHT22;57634;51.136;17.024;2023-04-08T19:07:38;10.80;63.00
70244;DHT22;57634;51.136;17.024;2023-04-08T19:10:40;10.90;63.20
70244;DHT22;57634;51.136;17.024;2023-04-08T19:13:41;10.80;63.30
70244;DHT22;57634;51.136;17.024;2023-04-08T19:16:42;10.80;63.50
70244;DHT22;57634;51.136;17.024;2023-04-08T19:19:43;10.80;63.70
70244;DHT22;57634;51.136;17.024;2023-04-08T19:23:10;10.80;63.70
70244;DHT22;57634;51.136;17.024;2023-04-08T19:26:12;10.70;63.90
70244;DHT22;57634;51.136;17.024;2023-04-08T19:29:13;10.70;64.20
70244;DHT22;57634;51.136;17.024;2023-04-08T19:32:15;10.60;64.30
70244;DHT22;57634;51.136;17.024;2023-04-08T19:35:16;10.60;64.50
70244;DHT22;57634;51.136;17.024;2023-04-08T19:38:18;10.50;64.60
70244;DHT22;57634;51.136;17.024;2023-04-08T19:41:19;10.50;64.80
70244;DHT22;57634;51.136;17.024;2023-04-08T19:44:23;10.50;65.00
70244;DHT22;57634;51.136;17.024;2023-04-08T19:47:25;10.50;65.10